Terminal Aerodrome Forecast
Issued by NWS

Home | Current Version | Previous Version | Text Only | Print | Product List | Glossary On
Versions: 1 2 3 4 5 6 7 8 9 10 11 12
000
FTUS43 KFGF 062300
TAFBJI
TAF
KBJI 062323Z 0700/0724 13010KT P6SM OVC060
      TEMPO 0700/0704 -SHRA
     FM071200 14008KT 5SM -RA BR OVC015=

USA.gov is the U.S. government's official web portal to all federal, state and local government web resources and services.